Time;durP1;ratioP1;P1;durP2;ratioP2;P2;SDS_P1;SDS_P2;PMS_P1;PMS_P2;Temp;Humidity;BMP_temperature;BMP_pressure;BME280_temperature;BME280_humidity;BME280_pressure;Samples;Min_cycle;Max_cycle;Signal;HPM_P1;HPM_P2
2022/01/15 00:00:39;;;;;;;13.45;7.65;;;8.20;79.20;;;;;;5028374;28;20418;-84
2022/01/15 00:03:10;;;;;;;14.85;8.50;;;8.20;79.20;;;;;;5058296;28;20060;-84
2022/01/15 00:05:37;;;;;;;14.60;7.93;;;8.20;79.20;;;;;;5054282;28;20037;-83
2022/01/15 00:08:04;;;;;;;15.88;9.02;;;8.20;79.20;;;;;;5052184;28;20026;-83
2022/01/15 00:10:30;;;;;;;13.65;8.32;;;8.20;79.20;;;;;;5034364;28;20031;-83
2022/01/15 00:12:58;;;;;;;13.75;8.55;;;8.20;79.20;;;;;;5035797;28;20024;-83
2022/01/15 00:15:30;;;;;;;14.82;8.90;;;8.20;79.20;;;;;;5034123;28;20041;-88
2022/01/15 00:20:23;;;;;;;12.63;7.53;;;8.20;79.20;;;;;;5060997;28;20029;-84
2022/01/15 00:22:51;;;;;;;13.77;8.10;;;8.20;79.20;;;;;;5053909;28;20020;-85
2022/01/15 00:25:18;;;;;;;13.75;8.32;;;8.20;79.20;;;;;;5047669;28;20041;-84
2022/01/15 00:27:44;;;;;;;15.57;9.02;;;8.20;79.20;;;;;;5047249;28;20025;-84
2022/01/15 00:30:12;;;;;;;13.73;7.90;;;8.20;79.20;;;;;;5046251;28;20024;-84
2022/01/15 00:32:39;;;;;;;13.82;8.30;;;8.20;79.20;;;;;;5030814;28;20037;-84
2022/01/15 00:35:06;;;;;;;13.40;8.35;;;8.20;79.20;;;;;;5030467;28;20087;-83
2022/01/15 00:37:32;;;;;;;13.82;8.68;;;8.20;79.20;;;;;;5064561;28;20485;-84
2022/01/15 00:39:59;;;;;;;14.73;8.25;;;8.20;79.20;;;;;;5064957;28;20074;-84
2022/01/15 00:42:27;;;;;;;14.02;8.65;;;8.20;79.20;;;;;;5062156;28;20028;-84
2022/01/15 00:44:55;;;;;;;14.95;8.73;;;8.20;79.20;;;;;;5052766;28;20021;-84
2022/01/15 00:47:21;;;;;;;14.45;8.98;;;8.20;79.20;;;;;;5051758;28;20060;-84
2022/01/15 00:49:46;;;;;;;13.43;8.00;;;8.20;79.20;;;;;;5042386;28;20072;-84
2022/01/15 00:52:12;;;;;;;15.73;7.88;;;8.20;79.20;;;;;;5055871;28;20101;-84
2022/01/15 00:54:38;;;;;;;15.93;9.40;;;8.20;79.20;;;;;;5032264;28;20046;-85
2022/01/15 00:57:04;;;;;;;16.92;9.52;;;8.20;79.20;;;;;;5036317;28;20051;-84
2022/01/15 00:59:30;;;;;;;15.32;8.68;;;8.20;79.20;;;;;;5007452;28;20032;-84
2022/01/15 01:01:56;;;;;;;14.82;8.82;;;8.20;79.20;;;;;;5041948;28;20029;-84
2022/01/15 01:04:21;;;;;;;13.52;8.05;;;8.20;79.80;;;;;;5038989;28;20378;-84
2022/01/15 01:06:47;;;;;;;14.35;8.65;;;8.20;79.20;;;;;;5058029;28;20035;-84
2022/01/15 01:09:13;;;;;;;15.57;8.95;;;8.20;79.20;;;;;;5034883;28;20033;-84
2022/01/15 01:11:47;;;;;;;13.90;7.93;;;8.20;79.20;;;;;;5013777;28;20457;-84
2022/01/15 01:25:10;;;;;;;12.82;7.72;;;8.10;79.20;;;;;;5052994;28;20052;-85
2022/01/15 01:27:49;;;;;;;14.82;8.23;;;8.20;79.20;;;;;;5046464;28;20303;-85
2022/01/15 01:30:29;;;;;;;14.18;7.80;;;8.10;79.20;;;;;;5049939;28;20028;-84
2022/01/15 01:33:15;;;;;;;13.43;7.50;;;8.10;79.30;;;;;;5062362;28;20034;-85
2022/01/15 01:35:44;;;;;;;11.70;7.07;;;8.20;79.30;;;;;;5040204;28;20041;-84
2022/01/15 01:38:16;;;;;;;13.73;7.97;;;8.20;79.30;;;;;;5021766;28;20458;-84
2022/01/15 01:40:45;;;;;;;11.82;7.15;;;8.10;79.30;;;;;;5056524;28;20033;-86
2022/01/15 01:45:50;;;;;;;13.25;7.75;;;8.10;79.30;;;;;;5075510;28;20043;-84
2022/01/15 01:48:16;;;;;;;13.35;7.63;;;8.20;79.30;;;;;;5031204;28;20105;-84
2022/01/15 01:50:42;;;;;;;13.40;6.95;;;8.10;79.30;;;;;;5036611;28;20034;-84
2022/01/15 01:53:09;;;;;;;14.00;8.30;;;8.10;79.30;;;;;;5048875;28;20534;-85
2022/01/15 01:55:35;;;;;;;11.63;7.22;;;8.10;79.30;;;;;;5036043;28;20044;-84
2022/01/15 01:58:01;;;;;;;12.98;7.45;;;8.10;79.30;;;;;;5033084;28;20033;-84
2022/01/15 02:00:29;;;;;;;12.15;6.93;;;8.10;79.30;;;;;;5042887;28;20055;-85
2022/01/15 02:02:55;;;;;;;13.60;7.38;;;8.10;79.30;;;;;;5027068;28;20090;-86
2022/01/15 02:05:22;;;;;;;13.52;7.38;;;8.10;79.30;;;;;;5041325;28;20095;-84
2022/01/15 02:07:49;;;;;;;13.05;7.22;;;8.10;79.30;;;;;;5044528;28;20064;-85
2022/01/15 02:10:18;;;;;;;12.52;7.05;;;8.10;79.30;;;;;;5044863;28;20029;-85
2022/01/15 02:12:46;;;;;;;13.00;7.20;;;8.10;79.30;;;;;;5043879;28;20458;-84
2022/01/15 02:15:15;;;;;;;11.82;6.50;;;8.10;79.30;;;;;;5032664;28;20048;-86
2022/01/15 02:17:42;;;;;;;12.02;7.15;;;8.10;79.30;;;;;;5031886;28;20030;-84
2022/01/15 02:23:34;;;;;;;11.55;6.60;;;8.10;79.30;;;;;;5054140;28;20041;-85
2022/01/15 02:26:06;;;;;;;11.50;6.30;;;8.10;79.40;;;;;;5035526;28;20388;-85
2022/01/15 02:28:35;;;;;;;11.35;6.47;;;8.00;79.30;;;;;;5050345;28;20018;-85
2022/01/15 02:31:04;;;;;;;12.93;7.13;;;8.10;79.30;;;;;;5033914;28;20013;-85
2022/01/15 02:33:30;;;;;;;10.85;6.43;;;8.00;79.30;;;;;;5048611;28;20032;-84
2022/01/15 02:35:57;;;;;;;11.98;6.10;;;8.10;79.40;;;;;;5070204;28;20362;-84
2022/01/15 02:38:23;;;;;;;10.63;6.45;;;8.10;79.40;;;;;;5019542;28;20044;-84
2022/01/15 02:40:49;;;;;;;12.10;6.25;;;8.10;79.40;;;;;;5052788;28;20025;-84
2022/01/15 02:43:19;;;;;;;10.13;6.00;;;8.10;79.30;;;;;;5008282;28;20086;-85
2022/01/15 02:45:55;;;;;;;11.07;6.10;;;8.00;79.30;;;;;;5043410;28;20482;-84
2022/01/15 02:48:24;;;;;;;12.18;6.68;;;8.10;79.40;;;;;;5031601;28;20058;-85
2022/01/15 02:50:51;;;;;;;10.68;5.93;;;8.00;79.30;;;;;;5035210;28;20113;-86
2022/01/15 02:53:17;;;;;;;11.38;5.28;;;8.10;79.40;;;;;;5056556;28;20116;-85
2022/01/15 02:55:45;;;;;;;10.65;6.25;;;8.00;79.30;;;;;;5027456;28;20044;-86
2022/01/15 02:58:11;;;;;;;10.82;5.68;;;8.00;79.30;;;;;;5044266;28;20028;-84
2022/01/15 03:00:37;;;;;;;9.38;6.18;;;8.00;79.30;;;;;;5041665;28;20108;-85
2022/01/15 03:03:03;;;;;;;12.30;6.25;;;8.00;79.30;;;;;;5041091;28;20029;-84
2022/01/15 03:05:29;;;;;;;9.65;5.65;;;8.00;79.30;;;;;;5035121;28;20040;-86
2022/01/15 03:07:54;;;;;;;8.82;5.40;;;8.00;79.30;;;;;;5054530;28;20040;-84
2022/01/15 03:10:20;;;;;;;10.07;5.38;;;8.00;79.30;;;;;;5026581;28;20037;-85
2022/01/15 03:12:46;;;;;;;10.18;5.18;;;8.00;79.30;;;;;;5045340;28;20037;-87
2022/01/15 03:15:18;;;;;;;10.20;6.05;;;8.00;79.30;;;;;;5029708;28;20033;-84
2022/01/15 03:17:44;;;;;;;8.48;4.97;;;8.00;79.30;;;;;;5032113;28;20041;-85
2022/01/15 03:20:12;;;;;;;10.32;5.97;;;8.00;79.30;;;;;;5050075;28;20031;-85
2022/01/15 03:22:38;;;;;;;10.82;5.53;;;8.00;79.30;;;;;;5035780;28;20024;-85
2022/01/15 03:25:04;;;;;;;10.50;5.90;;;8.00;79.30;;;;;;5049519;28;20021;-88
2022/01/15 03:27:30;;;;;;;9.50;5.82;;;8.00;79.30;;;;;;5038303;28;20038;-85
2022/01/15 03:29:56;;;;;;;9.90;6.18;;;8.00;79.30;;;;;;5041753;28;20078;-85
2022/01/15 03:32:22;;;;;;;10.15;6.13;;;8.00;79.30;;;;;;5041679;28;20094;-84
2022/01/15 03:34:48;;;;;;;10.60;5.88;;;7.90;79.30;;;;;;5043829;28;20466;-85
2022/01/15 03:37:15;;;;;;;10.73;5.85;;;8.00;79.30;;;;;;5029178;28;20049;-85
2022/01/15 03:39:43;;;;;;;10.18;6.10;;;8.00;79.40;;;;;;5045969;28;20032;-84
2022/01/15 03:42:12;;;;;;;9.80;5.85;;;8.00;79.40;;;;;;5040572;28;20025;-85
2022/01/15 03:44:43;;;;;;;10.05;5.53;;;8.00;79.40;;;;;;5029282;28;20048;-84
2022/01/15 03:47:11;;;;;;;10.70;6.05;;;7.90;79.30;;;;;;5040523;28;20493;-88
2022/01/15 03:49:38;;;;;;;9.85;5.55;;;7.90;79.30;;;;;;5042142;28;20059;-85
2022/01/15 03:52:06;;;;;;;10.10;5.47;;;7.90;79.30;;;;;;5052656;28;20488;-84
2022/01/15 03:54:32;;;;;;;9.13;5.45;;;7.90;79.30;;;;;;5043866;28;20021;-84
2022/01/15 03:56:57;;;;;;;9.07;5.60;;;7.90;79.30;;;;;;5057743;28;20038;-85
2022/01/15 03:59:23;;;;;;;9.20;5.28;;;7.90;79.30;;;;;;5065707;28;20025;-84
2022/01/15 04:01:49;;;;;;;10.45;5.78;;;7.90;79.30;;;;;;5070175;28;20125;-84
2022/01/15 04:04:16;;;;;;;9.23;5.38;;;7.90;79.30;;;;;;5041836;28;20033;-84
2022/01/15 04:06:42;;;;;;;9.38;5.60;;;7.90;79.40;;;;;;5020228;28;20035;-86
2022/01/15 04:09:09;;;;;;;8.90;5.43;;;7.90;79.30;;;;;;5040775;28;20044;-84
2022/01/15 04:11:35;;;;;;;9.30;5.22;;;7.90;79.40;;;;;;5058140;28;20082;-84
2022/01/15 04:14:02;;;;;;;9.25;5.50;;;7.90;79.40;;;;;;5038039;28;20462;-85
2022/01/15 04:16:31;;;;;;;9.57;5.20;;;7.90;79.40;;;;;;5048805;28;20037;-84
2022/01/15 04:19:00;;;;;;;8.40;4.82;;;7.90;79.40;;;;;;5074335;28;20036;-88
2022/01/15 04:21:27;;;;;;;8.48;4.72;;;7.90;79.40;;;;;;5060148;28;20039;-85
2022/01/15 04:23:53;;;;;;;9.63;5.70;;;7.80;79.30;;;;;;5037366;28;20028;-86
2022/01/15 04:26:24;;;;;;;9.00;5.35;;;7.90;79.40;;;;;;5071136;28;20036;-84
2022/01/15 04:28:51;;;;;;;8.25;5.13;;;7.90;79.40;;;;;;5050743;28;20041;-87
2022/01/15 04:31:17;;;;;;;9.13;4.97;;;7.80;79.30;;;;;;5019952;28;20037;-85
2022/01/15 04:33:44;;;;;;;9.55;5.60;;;7.80;79.30;;;;;;5043681;28;20028;-86
2022/01/15 04:36:10;;;;;;;8.60;5.40;;;7.80;79.40;;;;;;5056745;28;20465;-84
2022/01/15 04:38:38;;;;;;;8.13;5.20;;;7.80;79.90;;;;;;5039162;28;20031;-84
2022/01/15 04:41:07;;;;;;;8.80;5.28;;;7.80;79.30;;;;;;5047855;28;20060;-84
2022/01/15 04:43:34;;;;;;;8.77;5.43;;;7.80;79.30;;;;;;5027607;28;20020;-84
2022/01/15 04:46:00;;;;;;;8.82;5.35;;;7.80;79.30;;;;;;5038038;28;20051;-84
2022/01/15 04:48:27;;;;;;;9.00;5.55;;;7.80;79.30;;;;;;5038048;28;20097;-84
2022/01/15 04:50:53;;;;;;;10.88;6.15;;;7.80;79.30;;;;;;5057684;28;20082;-84
2022/01/15 04:53:19;;;;;;;9.07;5.53;;;7.80;79.40;;;;;;5038634;28;20083;-85
2022/01/15 04:55:45;;;;;;;10.00;6.13;;;7.80;79.30;;;;;;5048951;28;20412;-83
2022/01/15 04:58:11;;;;;;;10.00;6.00;;;7.80;79.30;;;;;;5024481;28;20052;-86
2022/01/15 05:00:37;;;;;;;10.35;6.75;;;7.80;79.30;;;;;;5056284;28;20029;-84
2022/01/15 05:03:03;;;;;;;10.18;5.28;;;7.80;79.30;;;;;;5027727;28;20045;-84
2022/01/15 05:05:30;;;;;;;9.98;5.93;;;7.80;79.40;;;;;;5023247;28;20025;-85
2022/01/15 05:07:56;;;;;;;9.43;5.53;;;7.80;79.40;;;;;;5047585;28;20552;-84
2022/01/15 05:10:27;;;;;;;9.23;5.70;;;7.80;79.40;;;;;;5058817;28;20060;-84
2022/01/15 05:12:56;;;;;;;9.20;6.00;;;7.80;79.40;;;;;;5014760;28;20029;-85
2022/01/15 05:15:22;;;;;;;9.10;5.80;;;7.80;79.40;;;;;;5049784;28;20059;-84
2022/01/15 05:17:49;;;;;;;8.75;5.60;;;7.80;79.40;;;;;;5055423;28;20032;-83
2022/01/15 05:20:17;;;;;;;9.20;5.90;;;7.80;79.40;;;;;;5081722;28;20162;-84
2022/01/15 05:22:44;;;;;;;8.68;5.53;;;7.80;79.40;;;;;;5017212;28;20358;-85
2022/01/15 05:25:13;;;;;;;9.65;5.57;;;7.80;79.40;;;;;;5058578;28;20443;-84
2022/01/15 05:27:40;;;;;;;9.60;6.10;;;7.80;79.40;;;;;;5029838;28;20057;-83
2022/01/15 05:30:07;;;;;;;9.68;5.85;;;7.80;79.40;;;;;;5036663;28;20021;-84
2022/01/15 05:32:33;;;;;;;10.27;6.47;;;7.80;79.40;;;;;;5054520;28;20056;-83
2022/01/15 05:35:00;;;;;;;10.43;6.15;;;7.80;79.40;;;;;;5053720;28;20115;-85
2022/01/15 05:37:26;;;;;;;9.38;5.95;;;7.80;79.40;;;;;;5041799;28;20078;-83
2022/01/15 05:39:53;;;;;;;9.05;6.05;;;7.80;79.40;;;;;;5041644;28;20509;-83
2022/01/15 05:42:19;;;;;;;9.38;6.05;;;7.80;79.40;;;;;;5044362;28;20035;-84
2022/01/15 05:44:45;;;;;;;9.32;5.97;;;7.80;79.50;;;;;;5025156;28;20454;-83
2022/01/15 05:47:11;;;;;;;9.25;6.03;;;7.80;79.40;;;;;;5044245;28;20040;-83
2022/01/15 05:49:37;;;;;;;9.60;6.47;;;7.70;79.30;;;;;;5047436;28;20388;-84
2022/01/15 05:52:03;;;;;;;10.13;7.00;;;7.80;79.40;;;;;;5044221;28;20045;-84
2022/01/15 05:54:29;;;;;;;9.50;6.05;;;7.70;79.40;;;;;;5050830;28;20059;-84
2022/01/15 05:56:55;;;;;;;11.02;6.63;;;7.70;79.40;;;;;;5028005;28;20393;-84
2022/01/15 05:59:21;;;;;;;11.43;6.72;;;7.70;79.40;;;;;;5045759;28;20037;-84
2022/01/15 06:01:47;;;;;;;10.57;6.53;;;7.70;79.30;;;;;;5042263;28;20029;-83
2022/01/15 06:04:13;;;;;;;10.43;6.45;;;7.70;79.40;;;;;;5036945;28;20785;-84
2022/01/15 06:06:39;;;;;;;9.70;5.78;;;7.70;79.40;;;;;;5019231;28;20033;-83
2022/01/15 06:09:04;;;;;;;9.05;6.07;;;7.70;79.40;;;;;;5060682;28;20024;-83
2022/01/15 06:11:31;;;;;;;10.43;6.90;;;7.70;79.40;;;;;;5054363;28;20017;-83
2022/01/15 06:13:56;;;;;;;10.55;6.38;;;7.70;79.40;;;;;;5033412;28;20040;-85
2022/01/15 06:16:23;;;;;;;9.25;6.30;;;7.70;79.40;;;;;;5044471;28;20032;-83
2022/01/15 06:18:49;;;;;;;10.68;6.65;;;7.70;79.40;;;;;;5027946;28;20028;-83
2022/01/15 06:21:15;;;;;;;10.73;6.72;;;7.70;79.40;;;;;;5019150;28;20628;-84
2022/01/15 06:23:41;;;;;;;9.57;5.95;;;7.70;79.40;;;;;;5054258;28;20122;-84
2022/01/15 06:26:07;;;;;;;9.77;6.22;;;7.70;79.40;;;;;;5037418;28;20090;-85
2022/01/15 06:28:33;;;;;;;10.48;6.80;;;7.70;79.50;;;;;;5041526;28;20026;-84
2022/01/15 06:30:59;;;;;;;9.32;5.95;;;7.70;79.40;;;;;;5049991;28;20089;-85
2022/01/15 06:33:25;;;;;;;10.15;6.82;;;7.70;79.40;;;;;;5050715;28;20071;-83
2022/01/15 06:35:51;;;;;;;9.93;6.28;;;7.70;79.40;;;;;;5044897;28;20120;-83
2022/01/15 06:38:16;;;;;;;9.75;6.43;;;7.70;79.40;;;;;;5077520;28;20033;-83
2022/01/15 06:40:42;;;;;;;9.15;6.15;;;7.70;79.50;;;;;;5059521;28;20429;-82
2022/01/15 06:43:08;;;;;;;10.57;6.57;;;7.70;79.40;;;;;;5012611;28;20029;-83
2022/01/15 06:45:34;;;;;;;11.70;7.15;;;7.70;79.50;;;;;;5070127;28;20047;-83
2022/01/15 06:48:01;;;;;;;9.80;6.28;;;7.70;79.40;;;;;;5047960;28;20048;-83
2022/01/15 06:50:28;;;;;;;9.35;6.25;;;7.70;79.50;;;;;;5044314;28;20028;-83
2022/01/15 06:52:54;;;;;;;9.95;6.63;;;7.70;79.40;;;;;;5034635;28;20059;-83
2022/01/15 06:55:21;;;;;;;10.32;7.25;;;7.60;79.40;;;;;;5054213;28;20048;-82
2022/01/15 06:57:47;;;;;;;11.10;7.50;;;7.70;79.40;;;;;;5048184;28;20039;-83
2022/01/15 07:00:14;;;;;;;11.07;7.00;;;7.70;79.40;;;;;;5023468;28;20060;-82
2022/01/15 07:02:41;;;;;;;11.05;6.88;;;7.70;79.40;;;;;;5052243;28;20032;-84
2022/01/15 07:05:07;;;;;;;10.98;6.78;;;7.70;80.00;;;;;;5030269;28;20021;-83
2022/01/15 07:07:35;;;;;;;12.23;7.72;;;7.70;79.40;;;;;;5031436;28;20079;-82
2022/01/15 07:10:01;;;;;;;11.90;7.57;;;7.70;79.50;;;;;;5045820;28;20024;-87
2022/01/15 07:12:27;;;;;;;12.32;8.27;;;7.70;79.50;;;;;;5030785;28;20064;-81
2022/01/15 07:14:52;;;;;;;10.30;6.60;;;7.60;79.40;;;;;;5039558;28;20125;-82
2022/01/15 07:17:18;;;;;;;11.10;7.38;;;7.60;79.40;;;;;;5025211;28;20816;-84
2022/01/15 07:19:44;;;;;;;11.70;6.75;;;7.70;79.50;;;;;;5023587;28;20431;-81
2022/01/15 07:22:10;;;;;;;11.55;7.13;;;7.70;79.50;;;;;;5056806;28;20103;-83
2022/01/15 07:24:36;;;;;;;11.57;7.57;;;7.70;79.50;;;;;;5048939;28;20024;-83
2022/01/15 07:27:03;;;;;;;11.90;7.75;;;7.70;79.50;;;;;;5062719;28;20048;-83
2022/01/15 07:29:30;;;;;;;11.52;7.13;;;7.70;79.50;;;;;;5046527;28;20032;-83
2022/01/15 07:31:57;;;;;;;12.77;8.02;;;7.60;79.40;;;;;;5022466;28;20528;-84
2022/01/15 07:34:23;;;;;;;12.60;7.82;;;7.60;79.40;;;;;;5070880;28;20033;-83
2022/01/15 07:36:57;;;;;;;12.95;7.80;;;7.70;79.50;;;;;;5058657;28;20032;-82
2022/01/15 07:39:23;;;;;;;11.93;7.50;;;7.70;79.50;;;;;;5029549;28;20037;-86
2022/01/15 07:41:49;;;;;;;13.43;8.02;;;7.60;79.40;;;;;;5046018;28;20020;-84
2022/01/15 07:44:15;;;;;;;12.50;7.90;;;7.70;79.40;;;;;;5035700;28;20038;-83
2022/01/15 07:46:41;;;;;;;13.73;8.65;;;7.70;79.50;;;;;;5005834;28;20116;-82
2022/01/15 07:49:07;;;;;;;13.15;8.00;;;7.60;79.40;;;;;;5026782;28;20135;-83
2022/01/15 07:51:33;;;;;;;13.30;8.27;;;7.60;79.50;;;;;;5056817;28;20036;-82
2022/01/15 07:53:59;;;;;;;12.98;8.02;;;7.70;80.20;;;;;;5055332;28;20439;-82
2022/01/15 07:56:25;;;;;;;13.48;8.13;;;7.60;79.50;;;;;;5040873;28;20036;-83
2022/01/15 07:58:50;;;;;;;12.30;7.85;;;7.60;79.50;;;;;;5029536;28;20141;-82
2022/01/15 08:01:17;;;;;;;13.02;8.00;;;7.60;79.50;;;;;;5018982;28;20074;-83
2022/01/15 08:03:44;;;;;;;12.43;7.97;;;7.70;79.50;;;;;;5072437;28;20041;-83
2022/01/15 08:06:10;;;;;;;12.10;8.18;;;7.60;79.50;;;;;;5046513;28;20453;-82
2022/01/15 08:08:37;;;;;;;14.63;8.85;;;7.60;79.50;;;;;;5051118;28;20033;-82
2022/01/15 08:11:03;;;;;;;12.85;8.23;;;7.60;79.50;;;;;;5045623;28;20086;-83
2022/01/15 08:13:31;;;;;;;14.02;8.48;;;7.60;79.50;;;;;;5041695;28;20477;-81
2022/01/15 08:15:59;;;;;;;14.82;9.07;;;7.60;79.50;;;;;;5024932;28;20035;-82
2022/01/15 08:18:26;;;;;;;12.55;8.52;;;7.60;79.50;;;;;;5062851;28;20020;-82
2022/01/15 08:20:52;;;;;;;12.82;8.15;;;7.60;79.50;;;;;;5044517;28;20020;-82
2022/01/15 08:23:18;;;;;;;14.20;8.50;;;7.60;79.50;;;;;;5060462;28;20035;-83
2022/01/15 08:25:44;;;;;;;13.68;9.07;;;7.60;79.50;;;;;;5023607;28;20535;-82
2022/01/15 08:28:10;;;;;;;12.57;8.40;;;7.60;79.50;;;;;;5055127;28;20029;-83
2022/01/15 08:30:36;;;;;;;14.38;9.15;;;7.60;79.50;;;;;;5050189;28;20048;-82
2022/01/15 08:33:02;;;;;;;15.30;9.52;;;7.60;79.50;;;;;;5041875;28;20025;-83
2022/01/15 08:35:27;;;;;;;15.27;9.55;;;7.60;79.50;;;;;;5044403;28;20150;-82
2022/01/15 08:37:54;;;;;;;15.43;9.57;;;7.60;79.50;;;;;;5021667;28;20032;-82
2022/01/15 08:40:21;;;;;;;15.88;9.88;;;7.60;79.50;;;;;;5037336;28;20397;-85
2022/01/15 08:42:48;;;;;;;14.73;8.57;;;7.60;79.50;;;;;;5031806;28;20043;-84
2022/01/15 08:45:15;;;;;;;16.90;8.70;;;7.60;79.50;;;;;;5040796;28;20460;-84
2022/01/15 08:47:41;;;;;;;12.88;7.57;;;7.60;79.50;;;;;;5050156;28;20202;-85
2022/01/15 08:50:10;;;;;;;15.30;9.40;;;7.60;79.50;;;;;;5038691;28;20070;-86
2022/01/15 08:52:39;;;;;;;17.77;9.48;;;7.60;79.50;;;;;;5058908;28;20028;-86
2022/01/15 08:55:06;;;;;;;14.70;9.15;;;7.60;79.50;;;;;;5038932;28;20021;-87
2022/01/15 08:57:33;;;;;;;17.10;9.98;;;7.60;79.50;;;;;;5027632;28;20547;-85
2022/01/15 09:00:00;;;;;;;14.73;9.63;;;7.60;79.50;;;;;;5061490;28;20050;-86
2022/01/15 09:02:28;;;;;;;16.42;9.23;;;7.60;79.50;;;;;;5076046;28;20564;-86
2022/01/15 09:04:53;;;;;;;16.02;9.85;;;7.60;79.50;;;;;;5063094;28;20106;-86
2022/01/15 09:07:19;;;;;;;16.20;9.63;;;7.60;79.50;;;;;;5047979;28;20465;-84
2022/01/15 09:09:45;;;;;;;15.45;9.07;;;7.60;79.50;;;;;;5068216;28;20028;-85
2022/01/15 09:12:11;;;;;;;15.32;9.00;;;7.60;79.50;;;;;;5015142;28;20021;-86
2022/01/15 09:14:39;;;;;;;14.88;8.80;;;7.60;79.50;;;;;;5058874;28;20035;-86
2022/01/15 09:17:05;;;;;;;16.08;9.13;;;7.60;79.60;;;;;;5059779;28;20040;-85
2022/01/15 09:19:32;;;;;;;16.00;9.15;;;7.60;80.20;;;;;;5040365;28;20123;-85
2022/01/15 09:21:58;;;;;;;13.93;8.45;;;7.60;80.20;;;;;;5038954;28;20526;-86
2022/01/15 09:24:24;;;;;;;15.55;9.20;;;7.60;79.50;;;;;;5045805;28;20123;-86
2022/01/15 09:32:07;;;;;;;15.35;8.77;;;7.60;79.50;;;;;;5056480;28;20024;-85
2022/01/15 09:34:34;;;;;;;15.40;8.98;;;7.60;79.50;;;;;;5042254;28;20446;-85
2022/01/15 09:37:02;;;;;;;15.23;9.50;;;7.60;79.60;;;;;;5068094;28;20081;-85
2022/01/15 09:39:28;;;;;;;15.55;9.18;;;7.60;79.60;;;;;;5069757;28;20025;-85
2022/01/15 09:41:55;;;;;;;13.30;8.15;;;7.60;79.50;;;;;;5068009;28;20388;-85
2022/01/15 09:44:25;;;;;;;13.98;8.48;;;7.70;79.60;;;;;;5047241;28;20033;-87
2022/01/15 09:46:51;;;;;;;14.68;8.65;;;7.60;79.60;;;;;;5041757;28;20040;-85
2022/01/15 09:49:20;;;;;;;13.43;8.73;;;7.60;79.60;;;;;;5055835;28;20052;-84
2022/01/15 09:51:46;;;;;;;13.25;8.05;;;7.70;79.60;;;;;;5015993;28;20056;-85
2022/01/15 09:54:14;;;;;;;15.05;9.05;;;7.60;79.60;;;;;;5052383;28;20478;-85
2022/01/15 09:56:40;;;;;;;13.60;7.95;;;7.60;79.60;;;;;;5055887;28;20033;-86
2022/01/15 09:59:06;;;;;;;13.25;7.88;;;7.70;79.60;;;;;;5049260;28;20026;-83
2022/01/15 10:01:32;;;;;;;14.38;8.48;;;7.60;79.50;;;;;;5035721;28;20039;-86
2022/01/15 10:03:59;;;;;;;13.40;8.13;;;7.70;79.60;;;;;;5039921;28;20036;-85
2022/01/15 10:06:26;;;;;;;14.57;8.70;;;7.70;79.60;;;;;;5038422;28;20127;-84
2022/01/15 10:09:03;;;;;;;14.00;9.00;;;7.70;79.60;;;;;;5056549;28;20035;-85
2022/01/15 10:11:52;;;;;;;14.50;9.20;;;7.70;79.70;;;;;;5077960;28;20487;-84
2022/01/15 10:14:31;;;;;;;14.93;9.15;;;7.70;79.70;;;;;;5045567;28;20037;-83
2022/01/15 10:16:59;;;;;;;15.10;9.07;;;7.60;79.60;;;;;;5033788;28;20025;-85
2022/01/15 10:19:29;;;;;;;14.10;9.05;;;7.60;79.60;;;;;;5049318;28;20384;-86
2022/01/15 10:22:13;;;;;;;14.52;9.23;;;7.60;79.60;;;;;;5051254;28;20058;-85
2022/01/15 10:24:41;;;;;;;15.63;8.93;;;7.70;79.70;;;;;;5053952;28;20048;-84
2022/01/15 10:27:23;;;;;;;14.40;8.65;;;7.60;79.60;;;;;;5037700;28;20021;-84
2022/01/15 10:30:02;;;;;;;14.52;8.82;;;7.60;79.70;;;;;;5036381;28;20040;-85
2022/01/15 10:32:31;;;;;;;14.50;9.43;;;7.60;79.60;;;;;;5037930;28;20055;-82
2022/01/15 10:34:57;;;;;;;16.23;9.68;;;7.70;79.60;;;;;;5067641;28;20510;-85
2022/01/15 10:37:37;;;;;;;14.25;8.77;;;7.60;79.60;;;;;;5032836;28;20081;-90
2022/01/15 10:40:17;;;;;;;14.65;8.82;;;7.60;79.70;;;;;;5042484;28;20123;-88
2022/01/15 10:42:51;;;;;;;15.73;8.60;;;7.70;79.60;;;;;;5054344;28;20143;-87
2022/01/15 10:45:17;;;;;;;15.88;9.15;;;7.70;79.70;;;;;;5081411;28;20028;-87
2022/01/15 10:47:47;;;;;;;16.73;10.00;;;7.70;79.60;;;;;;5041370;28;20028;-86
2022/01/15 10:50:30;;;;;;;14.38;8.75;;;7.70;79.60;;;;;;5072765;28;20076;-86
2022/01/15 10:52:57;;;;;;;17.10;9.85;;;7.70;79.70;;;;;;5061403;28;20039;-87
2022/01/15 10:55:27;;;;;;;16.63;9.52;;;7.70;79.60;;;;;;5026638;28;20048;-85
2022/01/15 10:57:58;;;;;;;14.63;8.95;;;7.70;79.60;;;;;;5057698;28;20055;-86
2022/01/15 11:00:30;;;;;;;13.75;9.25;;;7.70;79.60;;;;;;5059440;28;20028;-86
2022/01/15 11:03:05;;;;;;;16.83;8.90;;;7.70;79.60;;;;;;5058659;28;20056;-86
2022/01/15 11:05:35;;;;;;;16.67;9.27;;;7.70;79.70;;;;;;5053467;28;20047;-86
2022/01/15 11:08:27;;;;;;;15.20;9.02;;;7.70;79.60;;;;;;5061085;28;20456;-86
2022/01/15 11:11:02;;;;;;;13.00;8.60;;;7.70;79.70;;;;;;5058614;28;20077;-86
2022/01/15 11:13:37;;;;;;;13.93;8.77;;;7.70;79.60;;;;;;5069534;28;20024;-86
2022/01/15 11:16:08;;;;;;;12.50;8.98;;;7.70;79.60;;;;;;5058917;28;20028;-86
2022/01/15 11:18:39;;;;;;;13.80;8.10;;;7.70;79.60;;;;;;5040054;28;20032;-86
2022/01/15 11:21:08;;;;;;;13.27;8.68;;;7.70;79.70;;;;;;5062081;28;20027;-85
2022/01/15 11:23:36;;;;;;;13.57;8.18;;;7.70;79.60;;;;;;5039081;28;20066;-87
2022/01/15 11:26:07;;;;;;;13.20;7.85;;;7.70;79.60;;;;;;5076086;28;20041;-87
2022/01/15 11:28:35;;;;;;;13.93;8.02;;;7.70;79.60;;;;;;5035287;28;20032;-86
2022/01/15 11:31:03;;;;;;;13.48;8.05;;;7.70;79.60;;;;;;5053429;28;20053;-86
2022/01/15 11:33:34;;;;;;;14.70;8.35;;;7.70;79.60;;;;;;5035301;28;20039;-86
2022/01/15 11:36:01;;;;;;;13.70;8.18;;;7.80;79.70;;;;;;5051216;28;20029;-87
2022/01/15 11:38:43;;;;;;;14.40;8.48;;;7.80;79.70;;;;;;5052870;28;20025;-85
2022/01/15 11:41:27;;;;;;;15.40;8.88;;;7.70;79.70;;;;;;5058087;28;20111;-86
2022/01/15 11:44:17;;;;;;;12.98;8.18;;;7.80;79.70;;;;;;5069557;28;20031;-85
2022/01/15 11:46:53;;;;;;;14.45;8.35;;;7.80;79.70;;;;;;5077731;28;20465;-85
2022/01/15 11:49:41;;;;;;;11.82;7.68;;;7.80;79.60;;;;;;5058904;28;20112;-86
2022/01/15 11:52:11;;;;;;;13.90;8.15;;;7.80;79.80;;;;;;5036640;28;20040;-85
2022/01/15 11:54:49;;;;;;;14.52;8.40;;;7.70;79.60;;;;;;5059261;28;20036;-86
2022/01/15 11:57:36;;;;;;;14.38;8.60;;;7.80;79.70;;;;;;5052293;28;20036;-86
2022/01/15 12:00:15;;;;;;;13.30;8.70;;;7.70;79.80;;;;;;5052736;28;20056;-86
2022/01/15 12:02:41;;;;;;;13.18;8.57;;;7.80;79.70;;;;;;5050483;28;20047;-86
2022/01/15 12:05:19;;;;;;;15.05;9.38;;;7.80;79.60;;;;;;5056389;28;20117;-85
2022/01/15 12:08:09;;;;;;;13.75;8.50;;;7.80;79.70;;;;;;5057960;28;20051;-86
2022/01/15 12:10:53;;;;;;;12.70;7.80;;;7.80;79.60;;;;;;5046402;28;20048;-86
2022/01/15 12:13:27;;;;;;;13.80;8.15;;;7.80;79.70;;;;;;5075816;28;20021;-85
2022/01/15 12:16:17;;;;;;;12.85;8.10;;;7.70;79.60;;;;;;5051535;28;20029;-86
2022/01/15 12:18:48;;;;;;;14.80;8.68;;;7.80;79.70;;;;;;5050935;28;20024;-86
2022/01/15 12:21:43;;;;;;;13.60;8.07;;;7.80;79.60;;;;;;5044939;28;20086;-86
2022/01/15 12:24:44;;;;;;;13.57;7.97;;;7.80;79.70;;;;;;5059918;28;20029;-85
2022/01/15 12:27:12;;;;;;;13.85;8.30;;;7.80;79.70;;;;;;5056274;28;20294;-86
2022/01/15 12:29:39;;;;;;;14.50;8.40;;;7.80;79.60;;;;;;5033143;28;20114;-85
2022/01/15 12:32:06;;;;;;;11.75;7.47;;;7.70;79.60;;;;;;5049658;28;20101;-86
2022/01/15 12:34:32;;;;;;;13.68;7.80;;;7.80;79.70;;;;;;5052729;28;20032;-85
2022/01/15 12:36:58;;;;;;;14.15;8.73;;;7.80;79.60;;;;;;5036749;28;20050;-85
2022/01/15 12:39:35;;;;;;;13.38;8.40;;;7.70;79.60;;;;;;5045729;28;20056;-87
2022/01/15 12:42:01;;;;;;;13.50;8.20;;;7.80;79.70;;;;;;5047936;28;20436;-85
2022/01/15 12:44:29;;;;;;;13.35;8.73;;;7.80;79.60;;;;;;5038176;28;20029;-85
2022/01/15 12:46:59;;;;;;;15.63;9.68;;;7.80;79.60;;;;;;5039686;28;20038;-82
2022/01/15 12:49:46;;;;;;;15.57;9.50;;;7.80;79.60;;;;;;5032017;28;20112;-83
2022/01/15 12:52:25;;;;;;;13.40;8.38;;;7.80;79.70;;;;;;5055680;28;20025;-82
2022/01/15 12:54:53;;;;;;;15.45;9.55;;;7.80;79.60;;;;;;5059067;28;20028;-82
2022/01/15 12:57:46;;;;;;;15.40;8.85;;;7.80;79.60;;;;;;5031548;28;20082;-83
2022/01/15 13:00:19;;;;;;;13.40;8.02;;;7.80;79.70;;;;;;5045075;28;20031;-83
2022/01/15 13:02:52;;;;;;;14.10;8.77;;;7.80;79.60;;;;;;5048377;28;20039;-81
2022/01/15 13:05:18;;;;;;;14.32;8.63;;;7.80;79.60;;;;;;5049354;28;20041;-82
2022/01/15 13:07:55;;;;;;;14.95;9.00;;;7.80;79.60;;;;;;5034415;28;20043;-82
2022/01/15 13:10:29;;;;;;;17.05;9.93;;;7.80;79.70;;;;;;5048593;28;20031;-84
2022/01/15 13:12:59;;;;;;;14.80;8.98;;;7.80;79.60;;;;;;5060101;28;20020;-84
2022/01/15 13:15:27;;;;;;;16.55;10.02;;;7.80;79.50;;;;;;5024703;28;20036;-83
2022/01/15 13:17:54;;;;;;;17.02;9.70;;;7.80;79.60;;;;;;5047184;28;20028;-82
2022/01/15 13:20:33;;;;;;;15.43;10.05;;;7.80;79.50;;;;;;5044606;28;20024;-82